createdAt,value
2019-03-04T00:02:00.310Z,130.22
2019-03-04T00:04:55.986Z,135.00
2019-03-04T00:07:51.665Z,139.00
2019-03-04T00:10:47.128Z,137.15
2019-03-04T00:13:42.594Z,134.35
2019-03-04T00:16:37.865Z,139.62
2019-03-04T00:19:33.494Z,136.22
2019-03-04T00:22:29.022Z,137.40
2019-03-04T00:25:24.882Z,138.28
2019-03-04T00:28:19.477Z,139.75
2019-03-04T00:31:14.282Z,140.25
2019-03-04T00:34:09.237Z,143.52
2019-03-04T00:37:04.174Z,137.72
2019-03-04T00:39:59.573Z,144.70
2019-03-04T00:42:54.324Z,141.95
2019-03-04T00:45:49.020Z,142.98
2019-03-04T00:48:45.535Z,139.72
2019-03-04T00:51:40.565Z,153.42
2019-03-04T00:54:35.557Z,144.15
2019-03-04T00:57:30.847Z,144.25
2019-03-04T01:00:28.791Z,143.60
2019-03-04T01:03:24.262Z,153.50
2019-03-04T01:06:19.471Z,157.60
2019-03-04T01:09:16.106Z,156.80
2019-03-04T01:12:11.756Z,156.00
2019-03-04T01:15:08.033Z,151.87
2019-03-04T01:18:03.610Z,167.57
2019-03-04T01:20:59.084Z,163.28
2019-03-04T01:23:55.268Z,177.78
2019-03-04T01:26:50.285Z,195.60
2019-03-04T01:29:45.963Z,192.75
2019-03-04T01:32:41.070Z,188.00
2019-03-04T01:35:35.870Z,179.87
2019-03-04T01:38:30.716Z,173.47
2019-03-04T01:41:27.182Z,180.40
2019-03-04T01:44:22.636Z,172.65
2019-03-04T01:47:17.623Z,168.13
2019-03-04T01:50:15.160Z,166.47
2019-03-04T01:53:10.042Z,174.23
2019-03-04T01:56:05.300Z,178.40
2019-03-04T01:59:02.583Z,169.07
2019-03-04T02:01:59.041Z,191.57
2019-03-04T02:04:54.357Z,179.32
2019-03-04T02:07:49.755Z,189.05
2019-03-04T02:10:45.118Z,183.20
2019-03-04T02:13:40.318Z,183.12
2019-03-04T02:16:37.292Z,188.87
2019-03-04T02:19:32.460Z,195.92
2019-03-04T02:22:27.610Z,221.57
2019-03-04T02:25:25.004Z,212.15
2019-03-04T02:28:20.015Z,190.15
2019-03-04T02:31:16.690Z,181.75
2019-03-04T02:34:12.453Z,179.80
2019-03-04T02:37:08.258Z,193.05
2019-03-04T02:40:03.888Z,176.90
2019-03-04T02:43:00.030Z,194.07
2019-03-04T02:45:56.137Z,179.55
2019-03-04T02:48:51.769Z,177.93
2019-03-04T02:51:47.267Z,175.82
2019-03-04T02:54:42.861Z,176.40
2019-03-04T02:57:39.304Z,167.98
2019-03-04T03:00:36.073Z,175.40
2019-03-04T03:03:31.653Z,181.82
2019-03-04T03:06:31.725Z,195.97
2019-03-04T03:09:26.907Z,153.42
2019-03-04T03:12:21.918Z,144.90
2019-03-04T03:15:18.020Z,159.60
2019-03-04T03:18:12.965Z,164.00
2019-03-04T03:21:08.572Z,197.10
2019-03-04T03:24:04.343Z,172.57
2019-03-04T03:26:59.165Z,186.70
2019-03-04T03:29:56.045Z,176.90
2019-03-04T03:32:51.813Z,181.75
2019-03-04T03:35:47.856Z,184.07
2019-03-04T03:38:42.814Z,179.70
2019-03-04T03:41:37.896Z,168.50
2019-03-04T03:44:33.587Z,188.70
2019-03-04T03:47:29.457Z,198.90
2019-03-04T03:50:24.551Z,199.07
2019-03-04T03:53:20.032Z,211.60
2019-03-04T03:56:15.685Z,206.55
2019-03-04T03:59:12.044Z,233.80
2019-03-04T04:02:07.836Z,240.77
2019-03-04T04:05:03.590Z,250.55
2019-03-04T04:07:59.347Z,275.62
2019-03-04T04:10:55.125Z,272.98
2019-03-04T04:13:51.025Z,269.87
2019-03-04T04:16:47.028Z,270.17
2019-03-04T04:19:44.286Z,269.18
2019-03-04T04:22:39.808Z,223.70
2019-03-04T04:25:35.613Z,203.47
2019-03-04T04:28:31.863Z,190.47
2019-03-04T04:31:27.864Z,194.05
2019-03-04T04:34:24.032Z,180.60
2019-03-04T04:37:20.331Z,181.02
2019-03-04T04:40:16.385Z,185.93
2019-03-04T04:43:12.419Z,198.07
2019-03-04T04:46:08.224Z,175.38
2019-03-04T04:49:03.950Z,189.72
2019-03-04T04:51:59.883Z,170.68
2019-03-04T04:54:55.502Z,181.90
2019-03-04T04:57:51.364Z,143.85
2019-03-04T05:00:46.691Z,165.32
2019-03-04T05:03:42.921Z,165.85
2019-03-04T05:06:38.870Z,142.03
2019-03-04T05:09:35.318Z,149.07
2019-03-04T05:12:31.334Z,118.22
2019-03-04T05:15:27.464Z,98.45
2019-03-04T05:18:23.632Z,95.20
2019-03-04T05:21:20.576Z,99.10
2019-03-04T05:24:16.605Z,90.45
2019-03-04T05:27:12.607Z,80.95
2019-03-04T05:30:08.910Z,78.22
2019-03-04T05:33:04.504Z,82.57
2019-03-04T05:36:00.125Z,83.45
2019-03-04T05:38:55.872Z,78.50
2019-03-04T06:30:36.866Z,83.67
2019-03-04T06:33:32.840Z,86.28
2019-03-04T06:36:28.601Z,81.78
2019-03-04T06:39:23.539Z,91.22
2019-03-04T06:42:18.685Z,73.22
2019-03-04T06:45:16.025Z,82.57
2019-03-04T06:48:11.314Z,78.10
2019-03-04T06:51:06.928Z,75.78
2019-03-04T06:54:07.674Z,79.30
2019-03-04T06:57:27.854Z,91.40
2019-03-04T07:00:29.796Z,80.62
2019-03-04T07:03:33.862Z,75.97
2019-03-04T07:06:29.454Z,71.47
2019-03-04T07:09:26.175Z,87.70
2019-03-04T07:12:21.120Z,76.00
2019-03-04T07:15:16.597Z,82.82
2019-03-04T07:18:11.808Z,81.90
2019-03-04T07:21:06.916Z,79.75
2019-03-04T07:24:02.243Z,71.75
2019-03-04T07:26:57.951Z,75.65
2019-03-04T07:29:52.845Z,86.28
2019-03-04T07:32:48.613Z,81.22
2019-03-04T07:35:43.482Z,70.47
2019-03-04T07:39:05.484Z,86.55
2019-03-04T07:42:03.606Z,75.17
2019-03-04T07:44:59.210Z,75.08
2019-03-04T07:47:54.230Z,86.78
2019-03-04T07:50:49.779Z,93.07
2019-03-04T07:53:46.762Z,81.55
2019-03-04T07:56:42.118Z,86.70
2019-03-04T07:59:37.713Z,87.65
2019-03-04T08:02:33.558Z,123.25
2019-03-04T08:05:29.194Z,104.32
2019-03-04T08:08:24.617Z,138.88
2019-03-04T08:11:45.062Z,89.55
2019-03-04T08:14:40.394Z,91.75
2019-03-04T08:17:35.803Z,88.90
2019-03-04T08:20:30.881Z,73.92
2019-03-04T08:23:26.467Z,81.55
2019-03-04T08:26:22.276Z,74.75
2019-03-04T08:29:17.636Z,63.80
2019-03-04T08:32:12.430Z,56.60
2019-03-04T08:35:07.726Z,68.37
2019-03-04T08:38:02.891Z,71.75
2019-03-04T08:40:58.310Z,57.17
2019-03-04T08:43:53.609Z,54.53
2019-03-04T08:46:48.527Z,69.15
2019-03-04T08:49:44.206Z,71.53
2019-03-04T08:52:39.921Z,60.10
2019-03-04T08:55:35.194Z,68.00
2019-03-04T08:58:30.246Z,59.70
2019-03-04T09:01:27.190Z,47.55
2019-03-04T09:04:22.887Z,51.40
2019-03-04T09:07:19.070Z,56.00
2019-03-04T09:10:20.307Z,54.48
2019-03-04T09:13:15.899Z,60.10
2019-03-04T09:16:11.126Z,67.40
2019-03-04T09:19:07.212Z,63.98
2019-03-04T09:22:02.750Z,60.43
2019-03-04T09:24:57.840Z,60.52
2019-03-04T09:27:53.245Z,64.80
2019-03-04T09:30:49.006Z,53.70
2019-03-04T09:33:45.193Z,55.60
2019-03-04T09:36:40.829Z,63.45
2019-03-04T09:39:35.966Z,69.10
2019-03-04T09:42:32.262Z,62.75
2019-03-04T09:45:37.804Z,58.38
2019-03-04T09:48:22.870Z,53.90
2019-03-04T09:51:24.466Z,52.60
2019-03-04T09:54:13.374Z,64.05
2019-03-04T09:57:08.675Z,63.38
2019-03-04T10:00:03.487Z,50.10
2019-03-04T10:02:59.068Z,47.25
2019-03-04T10:06:33.583Z,46.88
2019-03-04T10:09:50.918Z,53.20
2019-03-04T10:13:28.053Z,47.40
2019-03-04T10:17:10.511Z,54.75
2019-03-04T10:20:48.495Z,57.55
2019-03-04T10:24:05.264Z,54.83
2019-03-04T10:27:27.733Z,52.55
2019-03-04T10:30:51.924Z,53.28
2019-03-04T10:34:37.361Z,65.65
2019-03-04T10:38:03.166Z,60.67
2019-03-04T10:41:40.131Z,57.27
2019-03-04T10:45:01.225Z,55.00
2019-03-04T10:48:00.186Z,58.45
2019-03-04T10:50:55.803Z,61.33
2019-03-04T10:53:50.696Z,57.45
2019-03-04T11:00:23.411Z,53.58
2019-03-04T11:03:18.505Z,54.93
2019-03-04T11:06:13.379Z,55.65
2019-03-04T11:09:09.192Z,54.38
2019-03-04T11:12:04.557Z,64.00
2019-03-04T11:14:59.732Z,60.92
2019-03-04T11:17:55.128Z,56.00
2019-03-04T11:20:50.640Z,61.00
2019-03-04T11:23:46.350Z,62.70
2019-03-04T11:26:41.843Z,56.63
2019-03-04T11:29:37.112Z,60.45
2019-03-04T11:32:31.822Z,61.05
2019-03-04T11:35:27.203Z,51.53
2019-03-04T11:38:43.516Z,52.03
2019-03-04T11:41:38.348Z,64.90
2019-03-04T11:44:33.189Z,56.83
2019-03-04T11:47:29.060Z,58.70
2019-03-04T11:50:24.092Z,71.95
2019-03-04T11:53:19.329Z,67.62
2019-03-04T11:56:14.806Z,52.23
2019-03-04T11:59:09.682Z,52.93
2019-03-04T12:02:05.267Z,64.95
2019-03-04T12:05:07.669Z,60.70
2019-03-04T12:07:57.153Z,62.90
2019-03-04T12:10:52.088Z,68.55
2019-03-04T12:13:46.973Z,65.17
2019-03-04T12:16:42.000Z,60.50
2019-03-04T12:19:37.389Z,77.70
2019-03-04T12:22:32.690Z,81.35
2019-03-04T12:25:28.244Z,80.95
2019-03-04T12:28:24.015Z,70.03
2019-03-04T12:31:19.870Z,77.58
2019-03-04T12:34:25.091Z,87.27
2019-03-04T12:37:20.819Z,86.65
2019-03-04T12:40:18.574Z,84.65
2019-03-04T12:43:14.193Z,91.20
2019-03-04T12:46:09.916Z,87.15
2019-03-04T12:49:07.595Z,97.53
2019-03-04T12:52:03.103Z,88.30
2019-03-04T12:55:00.941Z,89.60
2019-03-04T12:57:56.587Z,96.37
2019-03-04T13:00:51.591Z,108.00
2019-03-04T13:03:47.289Z,100.82
2019-03-04T13:06:42.826Z,103.00
2019-03-04T13:09:37.741Z,95.75
2019-03-04T13:12:32.539Z,92.42
2019-03-04T13:15:28.587Z,102.82
2019-03-04T13:18:24.270Z,82.65
2019-03-04T13:21:19.797Z,80.20
2019-03-04T13:24:15.757Z,87.17
2019-03-04T13:27:11.521Z,79.37
2019-03-04T13:30:06.723Z,84.72
2019-03-04T13:33:02.032Z,96.75
2019-03-04T13:35:57.008Z,113.22
2019-03-04T13:38:51.934Z,91.40
2019-03-04T13:41:46.904Z,95.28
2019-03-04T13:44:41.845Z,116.75
2019-03-04T13:47:39.885Z,131.27
2019-03-04T13:50:35.123Z,94.95
2019-03-04T13:53:30.121Z,108.85
2019-03-04T13:56:26.128Z,116.53
2019-03-04T13:59:21.443Z,87.47
2019-03-04T14:02:16.574Z,110.15
2019-03-04T14:05:12.196Z,97.92
2019-03-04T14:08:07.422Z,108.87
2019-03-04T14:11:03.080Z,114.75
2019-03-04T14:13:58.191Z,109.17
2019-03-04T14:16:53.079Z,95.55
2019-03-04T14:19:48.929Z,156.40
2019-03-04T14:22:43.882Z,123.53
2019-03-04T14:25:39.298Z,92.20
2019-03-04T14:28:34.492Z,102.40
2019-03-04T14:31:29.901Z,87.78
2019-03-04T14:34:25.009Z,84.60
2019-03-04T14:37:21.780Z,86.12
2019-03-04T14:40:17.166Z,100.00
2019-03-04T14:43:12.395Z,96.53
2019-03-04T14:46:07.727Z,103.10
2019-03-04T14:49:03.331Z,112.32
2019-03-04T14:51:58.467Z,104.63
2019-03-04T14:54:53.703Z,116.70
2019-03-04T14:57:49.827Z,149.20
2019-03-04T15:00:46.041Z,143.90
2019-03-04T15:03:41.038Z,98.70
2019-03-04T15:06:36.270Z,105.75
2019-03-04T15:09:32.284Z,103.80
2019-03-04T15:12:30.475Z,91.28
2019-03-04T15:15:25.683Z,94.13
2019-03-04T15:18:20.569Z,96.63
2019-03-04T15:21:15.476Z,85.50
2019-03-04T15:24:10.791Z,98.05
2019-03-04T15:27:05.970Z,89.55
2019-03-04T15:30:01.050Z,102.45
2019-03-04T15:32:56.384Z,107.75
2019-03-04T15:35:51.577Z,121.37
2019-03-04T15:38:52.491Z,104.25
2019-03-04T15:41:45.194Z,119.20
2019-03-04T15:44:40.239Z,118.20
2019-03-04T15:47:36.709Z,121.85
2019-03-04T15:50:31.119Z,119.93
2019-03-04T15:53:26.596Z,111.52
2019-03-04T15:56:21.545Z,121.90
2019-03-04T15:59:16.949Z,118.60
2019-03-04T16:02:14.657Z,118.08
2019-03-04T16:05:10.593Z,123.33
2019-03-04T16:08:07.911Z,131.45
2019-03-04T16:11:01.459Z,132.67
2019-03-04T16:13:56.645Z,144.62
2019-03-04T16:16:51.805Z,129.05
2019-03-04T16:19:46.891Z,137.10
2019-03-04T16:22:41.934Z,130.80
2019-03-04T16:25:37.917Z,131.85
2019-03-04T16:28:33.978Z,138.85
2019-03-04T16:31:28.874Z,125.38
2019-03-04T16:34:23.772Z,133.93
2019-03-04T16:37:18.564Z,155.52
2019-03-04T16:40:15.996Z,150.35
2019-03-04T16:43:11.358Z,145.10
2019-03-04T16:46:06.023Z,150.40
2019-03-04T16:49:01.063Z,142.77
2019-03-04T16:51:55.758Z,131.95
2019-03-04T16:54:50.532Z,140.95
2019-03-04T16:57:45.543Z,137.35
2019-03-04T17:00:40.379Z,124.27
2019-03-04T17:03:35.284Z,125.60
2019-03-04T17:06:29.992Z,121.30
2019-03-04T17:09:25.881Z,121.92
2019-03-04T17:12:20.894Z,143.78
2019-03-04T17:15:18.115Z,156.43
2019-03-04T17:18:17.494Z,169.20
2019-03-04T17:21:12.021Z,149.20
2019-03-04T17:24:07.345Z,156.47
2019-03-04T17:27:02.474Z,163.28
2019-03-04T17:29:58.532Z,144.50
2019-03-04T17:32:53.681Z,145.70
2019-03-04T17:35:49.161Z,146.77
2019-03-04T17:38:44.162Z,164.77
2019-03-04T17:41:39.261Z,158.75
2019-03-04T17:44:34.283Z,152.65
2019-03-04T17:47:29.636Z,155.85
2019-03-04T17:50:31.770Z,152.47
2019-03-04T17:53:27.562Z,176.20
2019-03-04T17:56:22.383Z,149.75
2019-03-04T17:59:17.305Z,164.10
2019-03-04T18:02:12.156Z,136.35
2019-03-04T18:05:07.321Z,139.37
2019-03-04T18:08:02.525Z,145.35
2019-03-04T18:10:57.552Z,156.22
2019-03-04T18:13:52.358Z,153.15
2019-03-04T18:16:47.273Z,123.18
2019-03-04T18:19:42.014Z,136.20
2019-03-04T18:22:37.295Z,126.05
2019-03-04T18:25:36.495Z,125.75
2019-03-04T18:29:08.781Z,163.95
2019-03-04T18:32:36.562Z,131.25
2019-03-04T18:36:02.063Z,123.78
2019-03-04T18:39:22.214Z,132.15
2019-03-04T18:42:53.973Z,124.40
2019-03-04T18:46:40.370Z,169.25
2019-03-04T18:49:36.816Z,143.68
2019-03-04T18:52:31.937Z,129.18
2019-03-04T18:55:27.135Z,140.92
2019-03-04T18:58:22.161Z,138.03
2019-03-04T19:01:18.521Z,136.05
2019-03-04T19:04:16.412Z,131.82
2019-03-04T19:07:11.093Z,117.85
2019-03-04T19:10:06.733Z,116.55
2019-03-04T19:13:02.437Z,116.30
2019-03-04T19:15:57.620Z,121.50
2019-03-04T19:18:52.800Z,125.70
2019-03-04T19:21:48.562Z,188.72
2019-03-04T19:24:43.756Z,155.52
2019-03-04T19:27:38.735Z,141.15
2019-03-04T19:30:34.291Z,135.68
2019-03-04T19:33:29.293Z,128.40
2019-03-04T19:36:24.398Z,127.87
2019-03-04T19:39:19.363Z,123.22
2019-03-04T19:42:14.474Z,150.78
2019-03-04T19:45:10.598Z,111.80
2019-03-04T19:48:05.467Z,95.85
2019-03-04T19:51:00.461Z,100.97
2019-03-04T19:53:55.262Z,147.85
2019-03-04T19:56:50.494Z,148.15
2019-03-04T19:59:45.332Z,104.23
2019-03-04T20:02:40.255Z,94.40
2019-03-04T20:05:35.860Z,104.27
2019-03-04T20:08:30.647Z,96.55
2019-03-04T20:11:26.029Z,109.07
2019-03-04T20:14:21.327Z,108.03
2019-03-04T20:17:16.448Z,84.60
2019-03-04T20:20:13.830Z,73.47
2019-03-04T20:23:09.200Z,84.28
2019-03-04T20:26:04.235Z,87.85
2019-03-04T20:28:59.018Z,78.10
2019-03-04T20:31:54.049Z,83.67
2019-03-04T20:34:48.993Z,86.17
2019-03-04T20:37:45.310Z,104.20
2019-03-04T20:40:40.301Z,98.03
2019-03-04T20:43:35.115Z,84.70
2019-03-04T20:46:29.802Z,83.35
2019-03-04T20:49:24.678Z,84.58
2019-03-04T20:52:19.904Z,74.82
2019-03-04T20:55:15.435Z,71.57
2019-03-04T20:58:10.277Z,69.07
2019-03-04T21:01:05.865Z,87.53
2019-03-04T21:04:00.701Z,92.82
2019-03-04T21:06:56.129Z,85.72
2019-03-04T21:09:51.181Z,85.12
2019-03-04T21:12:46.301Z,78.60
2019-03-04T21:15:41.124Z,68.00
2019-03-04T21:18:35.802Z,80.15
2019-03-04T21:21:31.269Z,84.25
2019-03-04T21:24:26.070Z,83.90
2019-03-04T21:27:21.505Z,86.67
2019-03-04T21:30:38.643Z,88.78
2019-03-04T21:33:53.375Z,108.70
2019-03-04T21:36:54.675Z,105.50
2019-03-04T21:39:50.765Z,119.45
2019-03-04T21:42:59.996Z,133.97
2019-03-04T21:46:33.632Z,138.50
2019-03-04T21:49:29.943Z,160.60
2019-03-04T21:52:47.226Z,156.47
2019-03-04T21:56:09.550Z,176.90
2019-03-04T21:59:04.671Z,159.87
2019-03-04T22:02:12.333Z,152.30
2019-03-04T22:05:10.968Z,147.30
2019-03-04T22:08:06.624Z,149.68
2019-03-04T22:11:02.113Z,152.07
2019-03-04T22:13:56.821Z,155.27
2019-03-04T22:16:51.574Z,150.55
2019-03-04T22:19:46.841Z,154.00
2019-03-04T22:22:42.147Z,138.77
2019-03-04T22:25:37.194Z,152.35
2019-03-04T22:28:31.875Z,164.88
2019-03-04T22:31:26.908Z,156.93
2019-03-04T22:34:22.434Z,149.42
2019-03-04T22:37:17.633Z,154.05
2019-03-04T22:40:14.878Z,148.50
2019-03-04T22:43:09.705Z,142.37
2019-03-04T22:46:04.709Z,155.97
2019-03-04T22:48:59.740Z,147.43
2019-03-04T22:51:54.921Z,158.27
2019-03-04T22:54:50.021Z,166.60
2019-03-04T22:57:44.987Z,156.70
2019-03-04T23:01:38.514Z,168.35
2019-03-04T23:04:45.931Z,198.97
2019-03-04T23:07:52.437Z,195.18
2019-03-04T23:10:52.466Z,184.03
2019-03-04T23:14:01.075Z,160.18
2019-03-04T23:16:55.951Z,181.82
2019-03-04T23:19:50.729Z,171.93
2019-03-04T23:22:46.006Z,171.55
2019-03-04T23:25:40.952Z,165.18
2019-03-04T23:28:36.944Z,172.70
2019-03-04T23:31:31.573Z,162.80
2019-03-04T23:34:26.729Z,158.07
2019-03-04T23:37:21.434Z,147.78
2019-03-04T23:40:16.757Z,147.60
2019-03-04T23:43:12.258Z,137.68
2019-03-04T23:46:07.239Z,133.82
2019-03-04T23:49:02.426Z,138.20
2019-03-04T23:51:57.259Z,123.02
2019-03-04T23:54:51.967Z,124.95
2019-03-04T23:57:47.168Z,121.80
